Latest Weather Observations for Shay Gap

IDW60801

Issued at 5:33 pm WST Tuesday 21 April 2015 (issued every 30 minutes, with the page automatically refreshed every 10 minutes)

About weather observations | Map of weather stations | Latest weather observations for WA | Other Formats
Station Details ID: 504045 Name: SHAY GAP Lat: -20.43 Lon: 120.13 Height: 173.83 m
Data from the previous 72 hours. | See also: Recent months for locations in Western Australia
Date/Time
WST
Temp
°C
App
Temp
°C
Dew
Point
Rel
Hum
%
Delta-T
°C
Wind Press
QNH
hPa
Press
MSL
hPa
Rain
since 9 am
mm
Dir
 
Spd
km/h
Gust
km/h
Spd
kts
Gust
kts
21/05:30pm 15.4 10.1 14.3 93 0.6 ESE 35 48 19 26 1012.3 1011.1 9.8
21/05:00pm 15.8 11.2 14.7 93 0.6 ESE 32 43 17 23 1012.7 1011.5 9.4
21/04:30pm 15.9 11.1 14.6 92 0.7 ESE 33 48 18 26 1012.3 1011.1 8.6
21/04:00pm 15.9 10.4 14.6 92 0.8 ESE 37 48 20 26 1012.0 1010.8 8.4
21/03:30pm 15.9 9.6 14.6 92 0.7 ESE 41 52 22 28 1011.5 1010.3 8.2
21/03:00pm 15.9 10.4 14.6 92 0.8 SE 37 52 20 28 1011.7 1010.5 8.0
21/02:30pm 15.6 10.4 14.5 93 0.6 SE 35 46 19 25 1012.2 1011.0 7.8
21/02:00pm 15.8 11.0 14.5 92 0.7 SE 33 44 18 24 1012.7 1011.5 7.2
21/01:30pm 15.7 10.9 14.6 93 0.6 ESE 33 44 18 24 1013.1 1011.9 6.6
21/01:00pm 15.6 10.4 14.5 93 0.6 ESE 35 50 19 27 1013.2 1012.0 6.0
21/12:30pm 15.6 10.7 14.3 92 0.7 ESE 33 46 18 25 1013.5 1012.3 4.4
21/12:00pm 16.1 11.3 14.6 91 0.9 SE 33 43 18 23 1014.0 1012.8 2.8
21/11:30am 16.2 11.4 14.7 91 0.9 SE 33 43 18 23 1014.4 1013.3 2.6
21/11:00am 16.3 11.5 14.7 90 0.9 SE 33 43 18 23 1015.0 1013.9 1.8
21/10:30am 16.0 11.2 14.5 91 0.9 SE 33 43 18 23 1015.1 1014.0 1.4
21/10:00am 16.1 11.2 14.3 89 1.0 SE 33 44 18 24 1015.6 1014.5 0.6
21/09:30am 16.4 10.5 13.7 84 1.5 SE 37 46 20 25 1015.7 1014.6 0.0
21/09:00am 16.8 10.6 13.7 82 1.8 SE 39 54 21 29 1015.3 1014.2 43.2
21/08:43am 16.7 10.9 13.8 83 1.7 SE 37 56 20 30 1015.4 1014.3 43.2
21/08:30am 16.7 11.3 13.8 83 1.7 SE 35 48 19 26 1015.0 1013.9 43.2
21/08:00am 16.1 10.8 14.3 89 1.0 SE 35 46 19 25 1015.1 1014.0 43.2
21/07:30am 16.2 11.0 14.4 89 1.0 SE 35 46 19 25 1015.2 1014.1 42.8
21/07:00am 16.2 11.9 14.4 89 1.0 SE 30 37 16 20 1015.3 1014.2 42.6
21/06:30am 16.2 11.5 14.2 88 1.1 SE 32 43 17 23 1014.8 1013.7 42.6
21/06:00am 16.4 11.6 14.1 86 1.3 SE 32 43 17 23 1014.6 1013.5 42.6
21/05:30am 16.3 11.7 14.5 89 1.0 SE 32 41 17 22 1014.2 1013.1 42.6
21/05:00am 16.2 11.0 14.4 89 1.0 SE 35 52 19 28 1014.2 1013.1 42.6
21/04:54am 16.2 11.4 14.6 90 0.9 SE 33 52 18 28 1014.2 1013.1 42.6
21/04:30am 16.0 11.8 14.7 92 0.8 SE 30 37 16 20 1014.8 1013.7 42.6
21/04:00am 16.0 11.3 14.9 93 0.6 SE 33 43 18 23 1014.5 1013.4 42.4
21/03:30am 16.1 11.5 15.0 93 0.6 SE 33 43 18 23 1014.6 1013.5 42.4
21/03:00am 16.0 11.4 15.2 95 0.5 SE 33 44 18 24 1014.9 1013.8 42.4
21/02:30am 15.8 10.8 15.0 95 0.5 ESE 35 46 19 25 1015.2 1014.1 42.4
21/02:00am 15.6 11.0 15.0 96 0.3 ESE 33 43 18 23 1015.6 1014.5 42.0
21/01:30am 15.5 10.8 14.9 96 0.3 ESE 33 48 18 26 1016.2 1015.1 41.6
21/01:00am 15.4 10.9 14.9 97 0.3 SE 32 41 17 22 1016.2 1015.1 41.0
21/12:30am 15.3 10.8 14.8 97 0.3 SE 32 41 17 22 1016.4 1015.3 40.2
21/12:00am 15.3 10.8 14.8 97 0.3 SE 32 43 17 23 1016.8 1015.6 39.0
 
Date/Time
WST
Temp
°C
App
Temp
°C
Dew
Point
Rel
Hum
%
Delta-T
°C
Wind Press
QNH
hPa
Press
MSL
hPa
Rain
since 9 am
mm
Dir
 
Spd
km/h
Gust
km/h
Spd
kts
Gust
kts
20/11:30pm 15.3 10.2 14.7 96 0.3 SE 35 48 19 26 1017.0 1015.8 36.6
20/11:21pm 15.3 10.2 14.7 96 0.3 SE 35 48 19 26 1016.9 1015.7 36.6
20/11:00pm 15.3 10.2 14.7 96 0.3 SE 35 46 19 25 1017.2 1016.0 35.0
20/10:41pm 15.3 10.7 14.7 96 0.3 SE 32 46 17 25 1017.6 1016.4 32.6
20/10:30pm 15.5 11.0 14.9 96 0.3 SE 32 43 17 23 1017.6 1016.4 31.4
20/10:00pm 15.5 10.9 14.7 95 0.5 ESE 32 48 17 26 1017.7 1016.5 30.4
20/09:38pm 15.6 10.1 14.6 94 0.6 SE 37 56 20 30 1017.5 1016.3 29.0
20/09:30pm 15.7 9.8 14.6 93 0.6 SE 39 52 21 28 1017.5 1016.3 29.0
20/09:08pm 16.0 10.6 14.9 93 0.6 ESE 37 56 20 30 1017.6 1016.4 28.4
20/09:00pm 16.1 10.3 15.0 93 0.6 SE 39 52 21 28 1017.7 1016.5 28.2
20/08:46pm 16.1 10.7 15.0 93 0.6 SE 37 56 20 30 1017.4 1016.2 28.2
20/08:30pm 16.2 10.1 15.1 93 0.6 SE 41 52 22 28 1017.3 1016.1 28.2
20/08:06pm 16.4 10.4 15.4 94 0.6 SE 41 63 22 34 1017.2 1016.0 28.2
20/08:00pm 16.3 11.0 15.3 94 0.6 SE 37 50 20 27 1017.2 1016.0 28.0
20/07:30pm 16.2 9.7 15.1 93 0.6 SE 43 56 23 30 1016.5 1015.4 27.6
20/07:03pm 16.3 9.8 15.2 93 0.6 SE 43 61 23 33 1016.4 1015.3 27.4
20/07:00pm 16.4 9.8 15.3 93 0.6 SE 44 61 24 33 1016.3 1015.2 27.4
20/06:35pm 16.6 10.2 15.3 92 0.8 SE 43 63 23 34 1015.8 1014.7 27.4
20/06:31pm 16.7 10.4 15.6 93 0.6 SE 43 63 23 34 1015.8 1014.7 27.4
20/06:30pm 16.6 10.2 15.5 93 0.6 SE 43 54 23 29 1016.0 1014.9 27.4
20/06:03pm 16.5 11.4 15.9 96 0.4 SE 37 56 20 30 1015.8 1014.7 27.4
20/06:00pm 16.5 11.4 15.9 96 0.4 SE 37 50 20 27 1016.1 1015.0 27.4
20/05:46pm 16.6 11.6 16.0 96 0.4 SE 37 56 20 30 1016.0 1014.9 27.2
20/05:30pm 16.7 12.1 16.1 96 0.4 ESE 35 46 19 25 1016.0 1014.9 26.8
20/05:00pm 16.7 11.7 16.1 96 0.4 ESE 37 56 20 30 1015.6 1014.5 25.4
20/04:59pm 16.7 11.7 16.1 96 0.4 ESE 37 56 20 30 1015.5 1014.4 25.4
20/04:30pm 16.8 12.6 16.2 96 0.4 SE 33 44 18 24 1015.0 1013.9 24.0
20/04:00pm 16.8 12.6 16.2 96 0.4 SE 33 46 18 25 1015.2 1014.1 23.4
20/03:30pm 16.8 12.6 16.2 96 0.4 SE 33 44 18 24 1015.1 1014.0 23.0
20/03:15pm 16.7 12.7 16.1 96 0.4 SE 32 44 17 24 1015.1 1014.0 22.8
20/03:10pm 16.8 12.6 16.2 96 0.4 SE 33 44 18 24 1015.0 1013.9 22.6
20/03:00pm 16.6 10.8 16.0 96 0.4 SE 41 56 22 30 1015.0 1013.9 22.6
20/02:52pm 16.7 12.1 16.2 97 0.3 SE 35 56 19 30 1014.7 1013.6 22.4
20/02:36pm 16.6 12.9 16.1 97 0.3 SSE 30 37 16 20 1015.5 1014.4 22.0
20/02:30pm 16.6 12.6 16.1 97 0.3 SSE 32 41 17 22 1015.6 1014.5 21.8
20/02:17pm 16.6 12.6 16.3 98 0.2 SSE 32 43 17 23 1015.2 1014.1 21.8
20/02:00pm 16.6 13.3 16.1 97 0.3 SE 28 35 15 19 1015.6 1014.5 20.8
20/01:30pm 16.6 13.3 16.1 97 0.3 SE 28 41 15 22 1015.9 1014.8 18.8
20/01:00pm 16.6 13.3 16.1 97 0.3 SE 28 35 15 19 1016.1 1015.0 17.2
20/12:30pm 16.9 13.7 16.4 97 0.3 SE 28 35 15 19 1016.5 1015.4 15.4
20/12:00pm 17.0 14.6 16.5 97 0.3 ESE 24 33 13 18 1017.3 1016.1 12.4
20/11:30am 17.1 14.4 16.6 97 0.3 SE 26 35 14 19 1017.1 1015.9 11.0
20/11:04am 17.1 14.4 16.6 97 0.3 SE 26 33 14 18 1017.6 1016.4 7.4
20/11:00am 17.1 14.4 16.5 96 0.4 SE 26 35 14 19 1017.6 1016.4 6.6
20/10:49am 17.2 13.7 16.4 95 0.5 SE 30 39 16 21 1017.8 1016.6 4.4
20/10:30am 18.0 15.5 17.2 95 0.5 ESE 26 35 14 19 1017.8 1016.6 1.8
20/10:00am 18.1 15.2 17.1 94 0.6 ESE 28 41 15 22 1018.0 1016.8 0.6
20/09:30am 18.3 15.0 17.0 92 0.8 ESE 30 43 16 23 1018.3 1017.1 0.2
20/09:00am 18.3 14.5 17.1 93 0.7 ESE 33 44 18 24 1017.9 1016.7 12.6
20/08:57am 18.2 14.5 17.0 93 0.7 ESE 32 44 17 24 1017.8 1016.6 12.6
20/08:30am 18.1 16.0 17.1 94 0.6 ESE 24 32 13 17 1018.0 1016.8 12.4
20/08:00am 18.1 15.9 16.9 93 0.7 ESE 24 33 13 18 1018.1 1016.9 12.2
20/07:30am 18.0 15.5 17.0 94 0.6 ESE 26 37 14 20 1017.8 1016.6 12.0
20/07:00am 17.8 15.3 17.0 95 0.5 ESE 26 33 14 18 1017.4 1016.2 12.0
20/06:30am 17.9 15.4 17.1 95 0.5 ESE 26 33 14 18 1017.3 1016.1 11.6
20/06:00am 17.9 14.9 16.9 94 0.6 ESE 28 37 15 20 1017.0 1015.8 10.6
20/05:30am 18.3 16.0 16.6 90 1.0 ESE 24 30 13 16 1017.2 1016.0 10.0
20/05:00am 18.4 15.7 16.6 89 1.1 ESE 26 32 14 17 1017.1 1015.9 10.0
20/04:30am 18.4 15.3 16.6 89 1.1 ESE 28 35 15 19 1017.0 1015.8 10.0
20/04:00am 18.4 15.7 16.6 89 1.1 ESE 26 35 14 19 1017.0 1015.8 10.0
20/03:30am 19.5 17.3 16.0 80 2.1 E 22 30 12 16 1017.0 1015.8 9.0
20/03:00am 19.1 16.5 16.0 82 1.9 ESE 24 33 13 18 1017.0 1015.8 9.0
20/02:30am 18.9 15.6 16.1 84 1.7 ESE 28 37 15 20 1016.4 1015.3 9.0
20/02:00am 18.8 15.1 15.9 83 1.7 ESE 30 41 16 22 1016.3 1015.2 9.0
20/01:30am 18.6 14.4 15.8 84 1.7 ESE 32 46 17 25 1016.8 1015.6 9.0
20/01:00am 18.7 14.9 15.8 83 1.7 ESE 30 44 16 24 1017.4 1016.2 9.0
20/12:30am 18.1 14.4 16.1 88 1.2 ESE 30 41 16 22 1017.3 1016.1 9.0
20/12:00am 18.2 16.4 16.0 87 1.3 ESE 20 28 11 15 1018.0 1016.8 8.2
 
Date/Time
WST
Temp
°C
App
Temp
°C
Dew
Point
Rel
Hum
%
Delta-T
°C
Wind Press
QNH
hPa
Press
MSL
hPa
Rain
since 9 am
mm
Dir
 
Spd
km/h
Gust
km/h
Spd
kts
Gust
kts
19/11:30pm 18.2 15.1 15.6 85 1.5 ESE 26 33 14 18 1017.9 1016.7 7.8
19/11:00pm 18.3 14.6 16.1 87 1.3 ESE 30 41 16 22 1018.4 1017.2 7.6
19/10:30pm 18.9 14.9 16.7 87 1.3 ESE 33 46 18 25 1018.6 1017.4 7.4
19/10:00pm 18.8 14.9 16.9 89 1.2 SE 33 43 18 23 1018.6 1017.4 7.2
19/09:30pm 19.1 15.5 17.2 89 1.2 SE 32 41 17 22 1019.4 1018.3 7.0
19/09:00pm 19.4 18.3 17.7 90 1.0 SE 20 26 11 14 1019.9 1018.8 6.0
19/08:30pm 19.7 17.8 17.7 88 1.2 SE 24 32 13 17 1019.2 1018.0 5.2
19/08:00pm 20.0 17.5 17.2 84 1.7 SE 26 33 14 18 1018.6 1017.4 4.8
19/07:30pm 20.7 16.5 15.7 73 3.0 SE 32 44 17 24 1017.9 1016.7 4.8
19/07:00pm 20.8 15.4 15.1 70 3.4 SE 37 50 20 27 1017.1 1015.9 4.6
19/06:30pm 20.1 14.6 15.7 76 2.6 SE 39 56 21 30 1016.4 1015.3 4.6
19/06:00pm 20.5 16.5 16.3 77 2.5 SE 32 46 17 25 1016.8 1015.6 4.0
19/05:58pm 20.4 16.3 16.4 78 2.4 SE 33 52 18 28 1016.8 1015.6 4.0
19/05:30pm 21.3 16.8 16.3 73 3.0 SSE 35 46 19 25 1016.2 1015.1 4.0
19/05:00pm 21.5 18.0 16.5 73 3.0 SSE 30 41 16 22 1016.1 1015.0 4.0
19/04:30pm 21.6 17.9 17.0 75 2.8 SE 32 43 17 23 1016.3 1015.2 4.0
19/04:00pm 22.2 19.9 17.6 75 2.9 SE 26 33 14 18 1016.4 1015.3 3.8
19/03:30pm 21.9 20.5 17.9 78 2.5 SE 22 32 12 17 1016.3 1015.2 3.6
19/03:00pm 22.1 20.8 18.1 78 2.5 SE 22 28 12 15 1016.4 1015.3 3.0
19/02:30pm 22.4 23.1 18.8 80 2.3 SSE 13 15 7 8 1016.8 1015.6 2.0
19/02:00pm 23.1 21.9 17.1 69 3.7 ESE 19 28 10 15 1016.9 1015.7 2.0
19/01:30pm 22.6 25.8 18.8 79 2.4 CALM 0 7 0 4 1016.8 1015.6 1.8
19/01:00pm 23.0 22.5 16.8 68 3.8 SSE 15 20 8 11 1016.9 1015.7 1.4
19/12:30pm 22.1 20.5 16.6 71 3.4 SSE 20 26 11 14 1016.9 1015.7 1.4
19/12:00pm 21.7 18.8 16.0 70 3.4 SSE 26 32 14 17 1017.1 1015.9 1.2
19/11:30am 21.3 17.8 15.4 69 3.5 SSE 28 35 15 19 1017.5 1016.3 1.2
19/11:00am 20.7 17.7 15.9 74 2.9 SSE 26 33 14 18 1018.1 1016.9 1.2
19/10:30am 20.4 18.2 16.0 76 2.7 SSE 22 30 12 16 1018.7 1017.5 1.2
19/10:00am 19.7 17.6 16.3 81 2.0 SSE 22 32 12 17 1018.8 1017.6 1.0
19/09:30am 19.2 16.6 15.9 81 2.0 SE 24 32 13 17 1018.7 1017.5 0.8
19/09:00am 20.2 18.3 15.2 73 3.0 SE 19 26 10 14 1018.6 1017.4 1.0
19/08:30am 20.0 17.1 15.0 73 3.0 SE 24 32 13 17 1017.8 1016.6 0.6
19/08:00am 21.8 17.7 13.7 60 4.7 ESE 28 41 15 22 1016.8 1015.6 0.0
19/07:30am 24.7 18.3 9.4 38 8.4 ESE 33 46 18 25 1015.8 1014.7 0.0
19/07:00am 24.5 17.8 9.6 39 8.2 SE 35 50 19 27 1015.1 1014.0 0.0
19/06:30am 24.4 18.2 9.9 40 8.0 SE 33 44 18 24 1015.1 1014.0 0.0
19/06:00am 24.8 17.7 9.5 38 8.4 SE 37 48 20 26 1014.3 1013.2 0.0
19/05:30am 24.9 18.2 9.6 38 8.4 SE 35 46 19 25 1014.2 1013.1 0.0
19/05:00am 25.1 18.2 10.2 39 8.3 SE 37 46 20 25 1013.7 1012.5 0.0
19/04:30am 25.1 19.2 10.6 40 8.1 SE 32 41 17 22 1013.7 1012.5 0.0
19/04:00am 25.0 19.1 10.5 40 8.1 SE 32 43 17 23 1013.4 1012.2 0.0
19/03:30am 24.9 19.4 10.7 40 8.0 SE 30 41 16 22 1013.8 1012.6 0.0
19/03:00am 24.6 19.1 10.5 41 7.9 SE 30 39 16 21 1013.9 1012.7 0.0
19/02:30am 24.2 18.5 11.2 44 7.3 SSE 32 41 17 22 1014.2 1013.1 0.0
19/02:00am 23.8 18.8 12.1 48 6.7 SSE 30 41 16 22 1014.5 1013.4 0.0
19/01:30am 23.7 18.4 12.4 49 6.5 SSE 32 39 17 21 1015.0 1013.9 0.0
19/01:00am 23.9 19.6 12.2 48 6.7 SSE 26 35 14 19 1015.5 1014.4 0.0
19/12:30am 23.8 19.2 11.2 45 7.1 SSE 26 35 14 19 1015.7 1014.6 0.0
19/12:00am 23.7 19.1 11.1 45 7.1 SSE 26 33 14 18 1016.1 1015.0 0.0
 
Date/Time
WST
Temp
°C
App
Temp
°C
Dew
Point
Rel
Hum
%
Delta-T
°C
Wind Press
QNH
hPa
Press
MSL
hPa
Rain
since 9 am
mm
Dir
 
Spd
km/h
Gust
km/h
Spd
kts
Gust
kts
18/11:30pm 23.9 18.9 10.9 44 7.3 SSE 28 37 15 20 1016.1 1015.0 0.0
18/11:00pm 23.8 17.9 11.2 45 7.1 SSE 33 43 18 23 1016.2 1015.1 0.0
18/10:30pm 24.3 18.1 11.3 44 7.4 SSE 35 48 19 26 1016.3 1015.2 0.0
18/10:00pm 24.7 18.4 10.9 42 7.8 SSE 35 54 19 29 1016.1 1015.0 0.0
18/09:56pm 24.7 18.4 10.9 42 7.8 SSE 35 54 19 29 1016.0 1014.9 0.0
18/09:30pm 25.3 18.7 11.5 42 7.9 SSE 37 48 20 26 1016.2 1015.1 0.0
18/09:00pm 25.9 19.7 11.3 40 8.3 SSE 35 50 19 27 1016.1 1015.0 0.0
18/08:30pm 27.7 21.8 11.3 36 9.4 SSE 33 48 18 26 1015.8 1014.7 0.0
18/08:00pm 27.9 22.2 11.0 35 9.7 SSE 32 39 17 21 1015.2 1014.1 0.0
18/07:30pm 27.5 24.4 12.3 39 8.9 SSE 20 24 11 13 1015.0 1013.9 0.0
18/07:00pm 27.8 24.4 12.6 39 8.9 SSE 22 32 12 17 1014.9 1013.8 0.0
18/06:30pm 27.7 24.1 12.9 40 8.7 SE 24 32 13 17 1014.7 1013.6 0.0
18/06:00pm 28.2 23.3 12.5 37 9.2 SE 30 41 16 22 1014.3 1013.2 0.0

Other Formats:

Comma delimited format used in spreadsheet applications
http://www.bom.gov.au/fwo/IDW60801/IDW60801.99311.axf

JavaScript Object Notation format (JSON) in row-major order
http://www.bom.gov.au/fwo/IDW60801/IDW60801.99311.json